sensor_id;sensor_type;location;lat;lon;timestamp;pressure;altitude;pressure_sealevel;temperature;humidity
48364;BME280;34170;54.364;18.582;2023-09-18T00:01:42;100510.97;;;17.94;100.00
48364;BME280;34170;54.364;18.582;2023-09-18T00:04:09;100514.28;;;18.04;100.00
48364;BME280;34170;54.364;18.582;2023-09-18T00:06:37;100509.78;;;17.96;100.00
48364;BME280;34170;54.364;18.582;2023-09-18T00:09:04;100500.97;;;17.94;100.00
48364;BME280;34170;54.364;18.582;2023-09-18T00:11:34;100501.72;;;17.88;100.00
48364;BME280;34170;54.364;18.582;2023-09-18T00:14:02;100496.25;;;17.88;100.00
48364;BME280;34170;54.364;18.582;2023-09-18T00:16:30;100521.03;;;17.93;100.00
48364;BME280;34170;54.364;18.582;2023-09-18T00:19:18;100514.66;;;17.86;100.00
48364;BME280;34170;54.364;18.582;2023-09-18T00:21:46;100512.28;;;17.83;100.00
48364;BME280;34170;54.364;18.582;2023-09-18T00:24:13;100500.69;;;17.89;100.00
48364;BME280;34170;54.364;18.582;2023-09-18T00:26:41;100504.44;;;17.88;100.00
48364;BME280;34170;54.364;18.582;2023-09-18T00:29:08;100499.06;;;17.80;100.00
48364;BME280;34170;54.364;18.582;2023-09-18T00:31:36;100511.38;;;17.90;100.00
48364;BME280;34170;54.364;18.582;2023-09-18T00:34:03;100502.03;;;17.85;100.00
48364;BME280;34170;54.364;18.582;2023-09-18T00:36:31;100497.84;;;17.82;100.00
48364;BME280;34170;54.364;18.582;2023-09-18T00:38:59;100511.44;;;17.97;100.00
48364;BME280;34170;54.364;18.582;2023-09-18T00:41:27;100503.97;;;17.99;100.00
48364;BME280;34170;54.364;18.582;2023-09-18T00:43:55;100502.44;;;17.97;100.00
48364;BME280;34170;54.364;18.582;2023-09-18T00:46:22;100504.81;;;18.00;100.00
48364;BME280;34170;54.364;18.582;2023-09-18T00:48:50;100496.66;;;18.00;100.00
48364;BME280;34170;54.364;18.582;2023-09-18T00:51:19;100473.59;;;17.96;100.00
48364;BME280;34170;54.364;18.582;2023-09-18T00:53:48;100500.84;;;18.02;100.00
48364;BME280;34170;54.364;18.582;2023-09-18T00:56:16;100496.72;;;17.91;100.00
48364;BME280;34170;54.364;18.582;2023-09-18T00:58:47;100489.38;;;17.77;100.00
48364;BME280;34170;54.364;18.582;2023-09-18T01:01:16;100498.66;;;17.83;100.00
48364;BME280;34170;54.364;18.582;2023-09-18T01:03:45;100492.94;;;17.63;100.00
48364;BME280;34170;54.364;18.582;2023-09-18T01:06:13;100495.66;;;17.48;100.00
48364;BME280;34170;54.364;18.582;2023-09-18T01:08:41;100477.66;;;17.47;100.00
48364;BME280;34170;54.364;18.582;2023-09-18T01:13:54;100487.72;;;17.76;100.00
48364;BME280;34170;54.364;18.582;2023-09-18T01:16:42;100492.28;;;17.76;100.00
48364;BME280;34170;54.364;18.582;2023-09-18T01:19:13;100483.41;;;17.82;100.00
48364;BME280;34170;54.364;18.582;2023-09-18T01:21:40;100463.88;;;17.78;100.00
48364;BME280;34170;54.364;18.582;2023-09-18T01:24:08;100465.97;;;17.76;100.00
48364;BME280;34170;54.364;18.582;2023-09-18T01:26:35;100473.16;;;17.84;100.00
48364;BME280;34170;54.364;18.582;2023-09-18T01:29:04;100469.63;;;17.83;100.00
48364;BME280;34170;54.364;18.582;2023-09-18T01:31:32;100464.53;;;17.80;100.00
48364;BME280;34170;54.364;18.582;2023-09-18T01:34:00;100474.78;;;17.78;100.00
48364;BME280;34170;54.364;18.582;2023-09-18T01:36:28;100470.16;;;17.79;100.00
48364;BME280;34170;54.364;18.582;2023-09-18T01:38:56;100459.47;;;17.62;100.00
48364;BME280;34170;54.364;18.582;2023-09-18T01:41:24;100453.56;;;17.59;100.00
48364;BME280;34170;54.364;18.582;2023-09-18T01:43:52;100467.63;;;17.77;100.00
48364;BME280;34170;54.364;18.582;2023-09-18T01:46:19;100463.78;;;17.71;100.00
48364;BME280;34170;54.364;18.582;2023-09-18T01:48:47;100461.53;;;17.60;100.00
48364;BME280;34170;54.364;18.582;2023-09-18T01:51:15;100454.03;;;17.62;100.00
48364;BME280;34170;54.364;18.582;2023-09-18T01:53:44;100462.56;;;17.59;100.00
48364;BME280;34170;54.364;18.582;2023-09-18T01:56:11;100446.06;;;17.61;100.00
48364;BME280;34170;54.364;18.582;2023-09-18T01:58:39;100446.72;;;17.63;100.00
48364;BME280;34170;54.364;18.582;2023-09-18T02:01:07;100433.59;;;17.66;100.00
48364;BME280;34170;54.364;18.582;2023-09-18T02:03:35;100439.69;;;17.68;100.00
48364;BME280;34170;54.364;18.582;2023-09-18T02:06:23;100436.31;;;17.66;100.00
48364;BME280;34170;54.364;18.582;2023-09-18T02:08:51;100445.22;;;17.60;100.00
48364;BME280;34170;54.364;18.582;2023-09-18T02:11:21;100443.16;;;17.62;100.00
48364;BME280;34170;54.364;18.582;2023-09-18T02:13:49;100443.06;;;17.56;100.00
48364;BME280;34170;54.364;18.582;2023-09-18T02:16:16;100434.63;;;17.50;100.00
48364;BME280;34170;54.364;18.582;2023-09-18T02:18:44;100434.72;;;17.42;100.00
48364;BME280;34170;54.364;18.582;2023-09-18T02:21:11;100424.88;;;17.26;100.00
48364;BME280;34170;54.364;18.582;2023-09-18T02:23:39;100435.09;;;17.24;100.00
48364;BME280;34170;54.364;18.582;2023-09-18T02:26:07;100426.94;;;17.24;100.00
48364;BME280;34170;54.364;18.582;2023-09-18T02:28:35;100440.59;;;17.16;100.00
48364;BME280;34170;54.364;18.582;2023-09-18T02:31:03;100443.38;;;17.08;100.00
48364;BME280;34170;54.364;18.582;2023-09-18T02:33:31;100432.50;;;17.08;100.00
48364;BME280;34170;54.364;18.582;2023-09-18T02:35:58;100417.88;;;16.94;100.00
48364;BME280;34170;54.364;18.582;2023-09-18T02:38:28;100425.47;;;16.99;100.00
48364;BME280;34170;54.364;18.582;2023-09-18T02:40:56;100413.66;;;16.91;100.00
48364;BME280;34170;54.364;18.582;2023-09-18T02:43:24;100411.97;;;16.90;100.00
48364;BME280;34170;54.364;18.582;2023-09-18T02:45:52;100422.28;;;16.95;100.00
48364;BME280;34170;54.364;18.582;2023-09-18T02:48:20;100426.22;;;16.92;100.00
48364;BME280;34170;54.364;18.582;2023-09-18T02:50:47;100434.19;;;16.94;100.00
48364;BME280;34170;54.364;18.582;2023-09-18T02:55:51;100420.91;;;16.99;100.00
48364;BME280;34170;54.364;18.582;2023-09-18T02:58:19;100410.63;;;16.86;100.00
48364;BME280;34170;54.364;18.582;2023-09-18T03:00:49;100419.06;;;16.91;100.00
48364;BME280;34170;54.364;18.582;2023-09-18T03:03:17;100419.19;;;16.98;100.00
48364;BME280;34170;54.364;18.582;2023-09-18T03:05:45;100414.72;;;17.05;100.00
48364;BME280;34170;54.364;18.582;2023-09-18T03:08:14;100417.25;;;17.07;100.00
48364;BME280;34170;54.364;18.582;2023-09-18T03:10:43;100404.69;;;17.06;100.00
48364;BME280;34170;54.364;18.582;2023-09-18T03:13:14;100404.03;;;17.19;100.00
48364;BME280;34170;54.364;18.582;2023-09-18T03:15:45;100401.44;;;17.25;100.00
48364;BME280;34170;54.364;18.582;2023-09-18T03:18:13;100407.91;;;17.24;100.00
48364;BME280;34170;54.364;18.582;2023-09-18T03:20:42;100392.69;;;17.15;100.00
48364;BME280;34170;54.364;18.582;2023-09-18T03:23:10;100399.25;;;17.06;100.00
48364;BME280;34170;54.364;18.582;2023-09-18T03:25:38;100380.16;;;16.99;100.00
48364;BME280;34170;54.364;18.582;2023-09-18T03:28:18;100402.41;;;16.94;100.00
48364;BME280;34170;54.364;18.582;2023-09-18T03:30:46;100396.34;;;17.07;100.00
48364;BME280;34170;54.364;18.582;2023-09-18T03:33:14;100390.28;;;17.20;100.00
48364;BME280;34170;54.364;18.582;2023-09-18T03:35:46;100376.50;;;17.22;100.00
48364;BME280;34170;54.364;18.582;2023-09-18T03:38:16;100383.16;;;17.34;100.00
48364;BME280;34170;54.364;18.582;2023-09-18T03:40:43;100382.13;;;17.35;100.00
48364;BME280;34170;54.364;18.582;2023-09-18T03:43:12;100376.78;;;17.27;100.00
48364;BME280;34170;54.364;18.582;2023-09-18T03:45:40;100367.03;;;17.32;100.00
48364;BME280;34170;54.364;18.582;2023-09-18T03:48:11;100372.56;;;17.39;100.00
48364;BME280;34170;54.364;18.582;2023-09-18T03:50:39;100375.00;;;17.34;100.00
48364;BME280;34170;54.364;18.582;2023-09-18T03:53:09;100377.91;;;17.32;100.00
48364;BME280;34170;54.364;18.582;2023-09-18T03:55:36;100365.72;;;17.28;100.00
48364;BME280;34170;54.364;18.582;2023-09-18T03:58:05;100361.91;;;17.23;100.00
48364;BME280;34170;54.364;18.582;2023-09-18T04:00:33;100361.78;;;17.16;100.00
48364;BME280;34170;54.364;18.582;2023-09-18T04:03:01;100359.84;;;17.10;100.00
48364;BME280;34170;54.364;18.582;2023-09-18T04:05:28;100357.84;;;17.04;100.00
48364;BME280;34170;54.364;18.582;2023-09-18T04:07:57;100354.84;;;16.99;100.00
48364;BME280;34170;54.364;18.582;2023-09-18T04:10:26;100362.91;;;16.92;100.00
48364;BME280;34170;54.364;18.582;2023-09-18T04:12:53;100346.03;;;16.96;100.00
48364;BME280;34170;54.364;18.582;2023-09-18T04:15:22;100347.31;;;16.86;100.00
48364;BME280;34170;54.364;18.582;2023-09-18T04:17:50;100324.44;;;16.80;100.00
48364;BME280;34170;54.364;18.582;2023-09-18T04:20:18;100342.56;;;16.88;100.00
48364;BME280;34170;54.364;18.582;2023-09-18T04:22:47;100341.16;;;16.92;100.00
48364;BME280;34170;54.364;18.582;2023-09-18T04:25:18;100340.00;;;16.86;100.00
48364;BME280;34170;54.364;18.582;2023-09-18T04:27:47;100328.56;;;16.76;100.00
48364;BME280;34170;54.364;18.582;2023-09-18T04:30:17;100330.38;;;16.84;100.00
48364;BME280;34170;54.364;18.582;2023-09-18T04:32:48;100311.19;;;16.85;100.00
48364;BME280;34170;54.364;18.582;2023-09-18T04:35:16;100322.63;;;16.95;100.00
48364;BME280;34170;54.364;18.582;2023-09-18T04:37:43;100315.13;;;16.98;100.00
48364;BME280;34170;54.364;18.582;2023-09-18T04:40:11;100303.38;;;16.82;100.00
48364;BME280;34170;54.364;18.582;2023-09-18T04:42:40;100319.22;;;16.93;100.00
48364;BME280;34170;54.364;18.582;2023-09-18T04:45:08;100305.41;;;16.88;100.00
48364;BME280;34170;54.364;18.582;2023-09-18T04:47:37;100306.03;;;16.90;100.00
48364;BME280;34170;54.364;18.582;2023-09-18T04:50:04;100312.88;;;17.01;100.00
48364;BME280;34170;54.364;18.582;2023-09-18T04:52:41;100319.69;;;16.97;100.00
48364;BME280;34170;54.364;18.582;2023-09-18T04:55:13;100303.88;;;17.01;100.00
48364;BME280;34170;54.364;18.582;2023-09-18T04:57:40;100303.97;;;17.07;100.00
48364;BME280;34170;54.364;18.582;2023-09-18T05:00:08;100293.00;;;17.01;100.00
48364;BME280;34170;54.364;18.582;2023-09-18T05:02:45;100292.56;;;17.12;100.00
48364;BME280;34170;54.364;18.582;2023-09-18T05:05:12;100295.63;;;17.39;100.00
48364;BME280;34170;54.364;18.582;2023-09-18T05:07:42;100281.16;;;17.53;100.00
48364;BME280;34170;54.364;18.582;2023-09-18T05:10:10;100303.66;;;17.47;100.00
48364;BME280;34170;54.364;18.582;2023-09-18T05:12:39;100301.56;;;17.64;100.00
48364;BME280;34170;54.364;18.582;2023-09-18T05:15:08;100309.41;;;17.73;100.00
48364;BME280;34170;54.364;18.582;2023-09-18T05:20:11;100316.81;;;17.95;100.00
48364;BME280;34170;54.364;18.582;2023-09-18T05:22:42;100318.09;;;18.42;100.00
48364;BME280;34170;54.364;18.582;2023-09-18T05:25:10;100301.84;;;18.27;100.00
48364;BME280;34170;54.364;18.582;2023-09-18T05:27:38;100312.63;;;18.92;100.00
48364;BME280;34170;54.364;18.582;2023-09-18T05:30:22;100308.66;;;18.16;100.00
48364;BME280;34170;54.364;18.582;2023-09-18T05:32:50;100306.06;;;18.58;100.00
48364;BME280;34170;54.364;18.582;2023-09-18T05:35:17;100283.97;;;18.67;100.00
48364;BME280;34170;54.364;18.582;2023-09-18T05:37:45;100275.53;;;18.34;100.00
48364;BME280;34170;54.364;18.582;2023-09-18T05:40:13;100276.25;;;17.85;100.00
48364;BME280;34170;54.364;18.582;2023-09-18T05:42:43;100293.88;;;18.25;100.00
48364;BME280;34170;54.364;18.582;2023-09-18T05:45:12;100299.03;;;18.42;100.00
48364;BME280;34170;54.364;18.582;2023-09-18T05:47:40;100301.03;;;19.59;100.00
48364;BME280;34170;54.364;18.582;2023-09-18T05:50:11;100305.03;;;20.65;100.00
48364;BME280;34170;54.364;18.582;2023-09-18T05:52:45;100284.22;;;20.84;100.00
48364;BME280;34170;54.364;18.582;2023-09-18T05:55:14;100306.44;;;23.86;87.93
48364;BME280;34170;54.364;18.582;2023-09-18T05:57:42;100307.50;;;26.27;77.60
48364;BME280;34170;54.364;18.582;2023-09-18T06:00:10;100309.59;;;27.65;63.56
48364;BME280;34170;54.364;18.582;2023-09-18T06:02:43;100318.63;;;29.60;55.33
48364;BME280;34170;54.364;18.582;2023-09-18T06:05:13;100302.47;;;27.47;62.71
48364;BME280;34170;54.364;18.582;2023-09-18T06:07:43;100306.63;;;28.21;56.47
48364;BME280;34170;54.364;18.582;2023-09-18T06:10:11;100307.38;;;27.89;57.53
48364;BME280;34170;54.364;18.582;2023-09-18T06:12:39;100303.84;;;31.00;48.05
48364;BME280;34170;54.364;18.582;2023-09-18T06:15:08;100300.19;;;31.85;43.21
48364;BME280;34170;54.364;18.582;2023-09-18T06:17:38;100309.44;;;30.74;46.01
48364;BME280;34170;54.364;18.582;2023-09-18T06:20:08;100311.28;;;31.95;42.19
48364;BME280;34170;54.364;18.582;2023-09-18T06:22:38;100315.63;;;33.10;39.29
48364;BME280;34170;54.364;18.582;2023-09-18T06:25:06;100320.13;;;33.78;37.84
48364;BME280;34170;54.364;18.582;2023-09-18T06:27:34;100302.22;;;33.84;36.12
48364;BME280;34170;54.364;18.582;2023-09-18T06:30:05;100314.63;;;32.71;38.69
48364;BME280;34170;54.364;18.582;2023-09-18T06:32:33;100296.53;;;32.98;39.43
48364;BME280;34170;54.364;18.582;2023-09-18T06:35:01;100290.47;;;32.91;40.07
48364;BME280;34170;54.364;18.582;2023-09-18T06:37:30;100287.94;;;33.86;35.85
48364;BME280;34170;54.364;18.582;2023-09-18T06:39:58;100283.72;;;34.92;35.15
48364;BME280;34170;54.364;18.582;2023-09-18T06:42:25;100287.84;;;34.81;34.80
48364;BME280;34170;54.364;18.582;2023-09-18T06:44:57;100267.09;;;31.88;39.20
48364;BME280;34170;54.364;18.582;2023-09-18T06:47:26;100273.13;;;31.46;40.74
48364;BME280;34170;54.364;18.582;2023-09-18T06:49:53;100251.19;;;30.48;41.79
48364;BME280;34170;54.364;18.582;2023-09-18T06:52:21;100268.63;;;30.08;44.50
48364;BME280;34170;54.364;18.582;2023-09-18T06:54:48;100269.63;;;31.25;40.29
48364;BME280;34170;54.364;18.582;2023-09-18T06:57:16;100270.34;;;32.40;39.54
48364;BME280;34170;54.364;18.582;2023-09-18T06:59:43;100267.28;;;32.02;38.28
48364;BME280;34170;54.364;18.582;2023-09-18T07:02:12;100267.56;;;32.40;38.31
48364;BME280;34170;54.364;18.582;2023-09-18T07:04:42;100271.63;;;32.53;38.99
48364;BME280;34170;54.364;18.582;2023-09-18T07:07:14;100275.88;;;35.22;33.73
48364;BME280;34170;54.364;18.582;2023-09-18T07:09:41;100275.19;;;34.69;32.71
48364;BME280;34170;54.364;18.582;2023-09-18T07:12:29;100282.81;;;35.38;32.20
48364;BME280;34170;54.364;18.582;2023-09-18T07:14:59;100265.56;;;35.86;31.30
48364;BME280;34170;54.364;18.582;2023-09-18T07:17:30;100278.97;;;35.48;31.99
48364;BME280;34170;54.364;18.582;2023-09-18T07:19:58;100278.78;;;35.17;33.61
48364;BME280;34170;54.364;18.582;2023-09-18T07:22:26;100270.38;;;35.95;31.85
48364;BME280;34170;54.364;18.582;2023-09-18T07:24:57;100257.91;;;33.83;34.78
48364;BME280;34170;54.364;18.582;2023-09-18T07:27:25;100261.47;;;35.56;32.25
48364;BME280;34170;54.364;18.582;2023-09-18T07:29:55;100241.81;;;28.07;46.80
48364;BME280;34170;54.364;18.582;2023-09-18T07:32:25;100244.84;;;26.56;53.42
48364;BME280;34170;54.364;18.582;2023-09-18T07:35:05;100244.41;;;29.62;45.79
48364;BME280;34170;54.364;18.582;2023-09-18T07:37:34;100259.31;;;32.89;37.93
48364;BME280;34170;54.364;18.582;2023-09-18T07:40:06;100266.06;;;34.64;34.33
48364;BME280;34170;54.364;18.582;2023-09-18T07:42:34;100268.03;;;36.56;31.23
48364;BME280;34170;54.364;18.582;2023-09-18T07:45:02;100269.28;;;37.61;29.45
48364;BME280;34170;54.364;18.582;2023-09-18T07:47:30;100272.75;;;34.49;33.29
48364;BME280;34170;54.364;18.582;2023-09-18T07:49:59;100265.53;;;37.08;29.53
48364;BME280;34170;54.364;18.582;2023-09-18T07:52:28;100272.63;;;36.74;30.16
48364;BME280;34170;54.364;18.582;2023-09-18T07:54:57;100255.91;;;34.54;33.43
48364;BME280;34170;54.364;18.582;2023-09-18T07:57:27;100263.69;;;35.31;32.68
48364;BME280;34170;54.364;18.582;2023-09-18T07:59:59;100232.44;;;32.15;36.81
48364;BME280;34170;54.364;18.582;2023-09-18T08:02:39;100235.59;;;33.20;36.68
48364;BME280;34170;54.364;18.582;2023-09-18T08:05:07;100209.47;;;28.07;47.85
48364;BME280;34170;54.364;18.582;2023-09-18T08:07:36;100231.13;;;30.92;41.49
48364;BME280;34170;54.364;18.582;2023-09-18T08:10:04;100241.09;;;33.69;35.11
48364;BME280;34170;54.364;18.582;2023-09-18T08:12:34;100239.94;;;32.78;37.18
48364;BME280;34170;54.364;18.582;2023-09-18T08:15:02;100235.28;;;36.11;32.44
48364;BME280;34170;54.364;18.582;2023-09-18T08:17:31;100224.16;;;34.17;34.32
48364;BME280;34170;54.364;18.582;2023-09-18T08:19:59;100220.13;;;30.05;42.27
48364;BME280;34170;54.364;18.582;2023-09-18T08:22:27;100214.00;;;30.49;42.76
48364;BME280;34170;54.364;18.582;2023-09-18T08:24:54;100198.56;;;31.68;40.07
48364;BME280;34170;54.364;18.582;2023-09-18T08:27:24;100213.66;;;33.76;36.21
48364;BME280;34170;54.364;18.582;2023-09-18T08:29:51;100206.19;;;32.61;37.82
48364;BME280;34170;54.364;18.582;2023-09-18T08:32:19;100200.69;;;29.90;42.39
48364;BME280;34170;54.364;18.582;2023-09-18T08:34:48;100192.59;;;31.41;40.70
48364;BME280;34170;54.364;18.582;2023-09-18T08:37:16;100187.94;;;29.78;41.56
48364;BME280;34170;54.364;18.582;2023-09-18T08:39:45;100196.84;;;28.54;46.49
48364;BME280;34170;54.364;18.582;2023-09-18T08:42:13;100188.34;;;32.62;37.67
48364;BME280;34170;54.364;18.582;2023-09-18T08:44:44;100191.94;;;31.04;41.04
48364;BME280;34170;54.364;18.582;2023-09-18T08:47:15;100199.34;;;28.56;47.28
48364;BME280;34170;54.364;18.582;2023-09-18T08:49:46;100202.84;;;29.67;45.70
48364;BME280;34170;54.364;18.582;2023-09-18T08:52:16;100204.16;;;31.08;41.58
48364;BME280;34170;54.364;18.582;2023-09-18T08:54:45;100194.56;;;30.65;42.04
48364;BME280;34170;54.364;18.582;2023-09-18T08:57:13;100200.34;;;28.07;49.50
48364;BME280;34170;54.364;18.582;2023-09-18T08:59:41;100201.13;;;28.77;48.30
48364;BME280;34170;54.364;18.582;2023-09-18T09:02:10;100191.81;;;30.13;43.71
48364;BME280;34170;54.364;18.582;2023-09-18T09:04:39;100202.25;;;28.39;47.79
48364;BME280;34170;54.364;18.582;2023-09-18T09:07:07;100184.63;;;28.12;51.85
48364;BME280;34170;54.364;18.582;2023-09-18T09:09:35;100182.25;;;27.67;53.37
48364;BME280;34170;54.364;18.582;2023-09-18T09:12:03;100176.66;;;26.68;58.80
48364;BME280;34170;54.364;18.582;2023-09-18T09:14:31;100175.25;;;28.13;54.06
48364;BME280;34170;54.364;18.582;2023-09-18T09:16:58;100166.63;;;28.05;52.28
48364;BME280;34170;54.364;18.582;2023-09-18T09:19:31;100166.84;;;30.49;46.25
48364;BME280;34170;54.364;18.582;2023-09-18T09:21:59;100167.72;;;32.34;40.86
48364;BME280;34170;54.364;18.582;2023-09-18T09:24:42;100151.22;;;26.44;55.74
48364;BME280;34170;54.364;18.582;2023-09-18T09:27:11;100151.56;;;26.31;60.73
48364;BME280;34170;54.364;18.582;2023-09-18T09:29:41;100151.28;;;28.24;52.68
48364;BME280;34170;54.364;18.582;2023-09-18T09:32:16;100136.06;;;27.89;55.40
48364;BME280;34170;54.364;18.582;2023-09-18T09:34:45;100148.19;;;28.63;51.11
48364;BME280;34170;54.364;18.582;2023-09-18T09:37:13;100126.84;;;27.79;55.77
48364;BME280;34170;54.364;18.582;2023-09-18T09:39:51;100135.50;;;30.49;45.65
48364;BME280;34170;54.364;18.582;2023-09-18T09:42:20;100130.69;;;26.35;60.85
48364;BME280;34170;54.364;18.582;2023-09-18T09:45:04;100122.22;;;26.80;58.90
48364;BME280;34170;54.364;18.582;2023-09-18T09:47:35;100125.25;;;27.55;55.37
48364;BME280;34170;54.364;18.582;2023-09-18T09:50:21;100106.22;;;27.27;57.36
48364;BME280;34170;54.364;18.582;2023-09-18T09:52:50;100127.06;;;26.51;59.42
48364;BME280;34170;54.364;18.582;2023-09-18T09:55:28;100115.63;;;26.42;58.71
48364;BME280;34170;54.364;18.582;2023-09-18T09:57:57;100115.88;;;26.80;59.11
48364;BME280;34170;54.364;18.582;2023-09-18T10:00:33;100104.09;;;26.46;61.17
48364;BME280;34170;54.364;18.582;2023-09-18T10:03:10;100091.97;;;27.35;57.26
48364;BME280;34170;54.364;18.582;2023-09-18T10:05:41;100088.94;;;27.14;56.52
48364;BME280;34170;54.364;18.582;2023-09-18T10:08:28;100086.69;;;26.84;57.97
48364;BME280;34170;54.364;18.582;2023-09-18T10:11:17;100082.06;;;26.06;62.02
48364;BME280;34170;54.364;18.582;2023-09-18T10:14:00;100066.97;;;26.31;61.78
48364;BME280;34170;54.364;18.582;2023-09-18T10:16:32;100060.16;;;27.05;59.45
48364;BME280;34170;54.364;18.582;2023-09-18T10:19:09;100078.72;;;27.37;57.41
48364;BME280;34170;54.364;18.582;2023-09-18T10:21:46;100062.59;;;26.35;61.65
48364;BME280;34170;54.364;18.582;2023-09-18T10:24:26;100054.34;;;25.96;64.84
48364;BME280;34170;54.364;18.582;2023-09-18T10:27:00;100063.34;;;27.46;59.16
48364;BME280;34170;54.364;18.582;2023-09-18T10:29:35;100053.41;;;27.50;58.59
48364;BME280;34170;54.364;18.582;2023-09-18T10:32:04;100061.91;;;27.16;58.95
48364;BME280;34170;54.364;18.582;2023-09-18T10:34:33;100053.59;;;27.38;57.57
48364;BME280;34170;54.364;18.582;2023-09-18T10:37:02;100051.19;;;27.85;56.55
48364;BME280;34170;54.364;18.582;2023-09-18T10:39:35;100049.09;;;27.92;55.58
48364;BME280;34170;54.364;18.582;2023-09-18T10:42:07;100056.09;;;28.63;55.41
48364;BME280;34170;54.364;18.582;2023-09-18T10:44:36;100040.69;;;28.87;51.85
48364;BME280;34170;54.364;18.582;2023-09-18T10:47:05;100046.81;;;27.89;55.74
48364;BME280;34170;54.364;18.582;2023-09-18T10:49:34;100039.56;;;27.40;59.11
48364;BME280;34170;54.364;18.582;2023-09-18T10:52:03;100028.53;;;28.99;51.01
48364;BME280;34170;54.364;18.582;2023-09-18T10:54:31;100025.50;;;27.84;53.35
48364;BME280;34170;54.364;18.582;2023-09-18T10:57:00;100025.63;;;28.00;53.61
48364;BME280;34170;54.364;18.582;2023-09-18T10:59:30;100026.78;;;27.34;58.35
48364;BME280;34170;54.364;18.582;2023-09-18T11:02:03;100014.75;;;26.91;58.84
48364;BME280;34170;54.364;18.582;2023-09-18T11:04:34;100016.47;;;27.56;54.05
48364;BME280;34170;54.364;18.582;2023-09-18T11:07:04;100009.69;;;28.85;50.57
48364;BME280;34170;54.364;18.582;2023-09-18T11:09:42;100015.72;;;26.57;58.00
48364;BME280;34170;54.364;18.582;2023-09-18T11:12:11;100009.53;;;26.67;57.49
48364;BME280;34170;54.364;18.582;2023-09-18T11:14:47;100000.25;;;27.33;54.92
48364;BME280;34170;54.364;18.582;2023-09-18T11:17:30;99995.19;;;26.65;56.46
48364;BME280;34170;54.364;18.582;2023-09-18T11:22:55;99992.75;;;26.96;56.11
48364;BME280;34170;54.364;18.582;2023-09-18T11:28:06;99978.72;;;26.75;57.53
48364;BME280;34170;54.364;18.582;2023-09-18T11:30:35;99979.59;;;26.81;57.78
48364;BME280;34170;54.364;18.582;2023-09-18T11:33:04;99974.63;;;26.56;56.42
48364;BME280;34170;54.364;18.582;2023-09-18T11:35:33;99972.25;;;26.87;56.89
48364;BME280;34170;54.364;18.582;2023-09-18T11:38:09;99965.28;;;26.57;56.46
48364;BME280;34170;54.364;18.582;2023-09-18T11:40:43;99970.44;;;25.87;58.62
48364;BME280;34170;54.364;18.582;2023-09-18T11:43:26;99963.13;;;26.15;58.30
48364;BME280;34170;54.364;18.582;2023-09-18T11:46:00;99960.56;;;26.30;57.98
48364;BME280;34170;54.364;18.582;2023-09-18T11:48:31;99952.00;;;25.87;58.30
48364;BME280;34170;54.364;18.582;2023-09-18T11:51:02;99960.34;;;25.93;57.86
48364;BME280;34170;54.364;18.582;2023-09-18T11:53:35;99964.06;;;25.64;59.17
48364;BME280;34170;54.364;18.582;2023-09-18T11:56:11;99951.78;;;26.11;56.85
48364;BME280;34170;54.364;18.582;2023-09-18T11:58:49;99952.34;;;26.35;57.60
48364;BME280;34170;54.364;18.582;2023-09-18T12:01:18;99946.09;;;25.96;57.46
48364;BME280;34170;54.364;18.582;2023-09-18T12:03:53;99943.81;;;25.93;57.71
48364;BME280;34170;54.364;18.582;2023-09-18T12:06:21;99939.28;;;26.03;57.85
48364;BME280;34170;54.364;18.582;2023-09-18T12:08:51;99939.75;;;25.78;57.34
48364;BME280;34170;54.364;18.582;2023-09-18T12:11:21;99932.19;;;25.68;57.71
48364;BME280;34170;54.364;18.582;2023-09-18T12:13:52;99927.63;;;26.18;55.57
48364;BME280;34170;54.364;18.582;2023-09-18T12:16:20;99922.28;;;26.34;55.79
48364;BME280;34170;54.364;18.582;2023-09-18T12:18:48;99903.66;;;26.19;56.26
48364;BME280;34170;54.364;18.582;2023-09-18T12:21:17;99923.19;;;26.61;55.49
48364;BME280;34170;54.364;18.582;2023-09-18T12:23:45;99918.63;;;26.77;56.17
48364;BME280;34170;54.364;18.582;2023-09-18T12:26:15;99915.53;;;26.47;54.74
48364;BME280;34170;54.364;18.582;2023-09-18T12:28:45;99902.63;;;26.25;55.21
48364;BME280;34170;54.364;18.582;2023-09-18T12:31:14;99916.16;;;26.27;55.71
48364;BME280;34170;54.364;18.582;2023-09-18T12:33:43;99913.97;;;26.56;54.52
48364;BME280;34170;54.364;18.582;2023-09-18T12:36:19;99910.94;;;26.57;54.89
48364;BME280;34170;54.364;18.582;2023-09-18T12:38:57;99903.47;;;26.53;55.00
48364;BME280;34170;54.364;18.582;2023-09-18T12:41:26;99890.84;;;26.30;55.35
48364;BME280;34170;54.364;18.582;2023-09-18T12:43:59;99889.28;;;26.39;54.94
48364;BME280;34170;54.364;18.582;2023-09-18T12:46:27;99893.66;;;26.13;55.16
48364;BME280;34170;54.364;18.582;2023-09-18T12:48:56;99888.28;;;26.23;54.93
48364;BME280;34170;54.364;18.582;2023-09-18T12:51:31;99865.47;;;26.28;54.15
48364;BME280;34170;54.364;18.582;2023-09-18T12:54:01;99880.19;;;26.16;54.98
48364;BME280;34170;54.364;18.582;2023-09-18T12:56:40;99869.03;;;26.28;53.00
48364;BME280;34170;54.364;18.582;2023-09-18T12:59:09;99871.03;;;26.33;52.98
48364;BME280;34170;54.364;18.582;2023-09-18T13:01:47;99867.53;;;26.15;53.78
48364;BME280;34170;54.364;18.582;2023-09-18T13:04:15;99860.22;;;26.26;53.98
48364;BME280;34170;54.364;18.582;2023-09-18T13:06:43;99852.56;;;26.33;54.19